Time;durP1;ratioP1;P1;durP2;ratioP2;P2;SDS_P1;SDS_P2;PMS_P1;PMS_P2;Temp;Humidity;BMP_temperature;BMP_pressure;BME280_temperature;BME280_humidity;BME280_pressure;Samples;Min_cycle;Max_cycle;Signal;HPM_P1;HPM_P2
2021/08/14 00:01:00;;;;;;;17.02;12.75;;;;;;;20.91;59.07;100835.30;1781170;80;21043;-77
2021/08/14 00:03:26;;;;;;;15.20;12.07;;;;;;;20.82;59.28;100836.67;1781834;80;21007;-77
2021/08/14 00:05:52;;;;;;;19.00;13.60;;;;;;;20.73;59.49;100832.59;1781877;79;20996;-77
2021/08/14 00:08:19;;;;;;;19.80;13.78;;;;;;;20.61;59.74;100826.27;1781312;79;21058;-78
2021/08/14 00:10:45;;;;;;;19.98;14.78;;;;;;;20.52;59.98;100828.95;1781565;80;21137;-77
2021/08/14 00:13:11;;;;;;;22.35;13.90;;;;;;;20.47;60.19;100827.47;1781619;79;21070;-78
2021/08/14 00:15:37;;;;;;;22.73;14.43;;;;;;;20.42;60.39;100827.61;1781554;80;20983;-78
2021/08/14 00:18:03;;;;;;;22.25;13.93;;;;;;;20.34;60.63;100833.30;1781687;79;21035;-77
2021/08/14 00:20:29;;;;;;;24.02;15.80;;;;;;;20.27;60.87;100827.61;1781472;79;20972;-78
2021/08/14 00:22:58;;;;;;;26.42;16.23;;;;;;;20.19;61.11;100826.04;1781938;79;21193;-78
2021/08/14 00:25:23;;;;;;;26.75;17.20;;;;;;;20.14;61.37;100833.98;1781386;80;21023;-78
2021/08/14 00:27:49;;;;;;;24.63;16.02;;;;;;;20.06;61.58;100826.13;1781581;80;21062;-78
2021/08/14 00:30:15;;;;;;;20.65;14.47;;;;;;;19.97;61.84;100826.11;1781548;80;21032;-77
2021/08/14 00:32:41;;;;;;;22.27;15.93;;;;;;;19.92;62.09;100817.81;1781825;80;20992;-78
2021/08/14 00:35:10;;;;;;;24.55;16.17;;;;;;;19.88;62.31;100816.59;1781648;80;21139;-78
2021/08/14 00:37:35;;;;;;;26.25;17.17;;;;;;;19.85;62.53;100815.16;1781542;80;21487;-78
2021/08/14 00:40:02;;;;;;;25.60;16.48;;;;;;;19.83;62.74;100816.44;1781789;80;20996;-78
2021/08/14 00:42:28;;;;;;;21.60;16.20;;;;;;;19.80;62.95;100818.23;1781518;80;21438;-78
2021/08/14 00:44:54;;;;;;;23.05;16.48;;;;;;;19.78;63.12;100821.67;1781330;80;21119;-77
2021/08/14 00:47:26;;;;;;;21.15;16.35;;;;;;;19.76;63.28;100817.02;1781642;80;21450;-77
2021/08/14 00:49:53;;;;;;;19.35;15.20;;;;;;;19.74;63.38;100815.87;1780509;80;20996;-77
2021/08/14 00:52:19;;;;;;;20.50;15.10;;;;;;;19.73;63.50;100817.45;1781742;80;21442;-77
2021/08/14 00:54:45;;;;;;;22.50;15.40;;;;;;;19.71;63.58;100823.59;1781411;80;21646;-77
2021/08/14 00:57:11;;;;;;;23.05;16.37;;;;;;;19.70;63.64;100815.19;1781699;80;20933;-77
2021/08/14 00:59:37;;;;;;;21.77;15.58;;;;;;;19.69;63.72;100812.17;1781371;80;21062;-77
2021/08/14 01:02:04;;;;;;;18.77;16.12;;;;;;;19.68;63.79;100809.16;1781664;80;20934;-77
2021/08/14 01:04:30;;;;;;;23.27;16.17;;;;;;;19.66;63.92;100820.73;1781717;80;21004;-77
2021/08/14 01:06:56;;;;;;;24.82;15.83;;;;;;;19.63;64.07;100815.24;1781524;80;21107;-77
2021/08/14 01:09:23;;;;;;;28.00;17.75;;;;;;;19.62;64.20;100818.16;1781731;80;21723;-78
2021/08/14 01:11:50;;;;;;;24.57;17.50;;;;;;;19.57;64.37;100809.84;1781643;80;21173;-77
2021/08/14 01:14:16;;;;;;;21.27;15.75;;;;;;;19.57;64.50;100817.97;1781550;80;20984;-78
2021/08/14 01:16:42;;;;;;;21.12;16.15;;;;;;;19.59;64.60;100811.31;1781523;80;20988;-78
2021/08/14 01:19:08;;;;;;;22.60;17.27;;;;;;;19.62;64.70;100811.39;1781959;80;21504;-78
2021/08/14 01:21:34;;;;;;;22.73;17.20;;;;;;;19.62;64.79;100816.80;1783768;80;21484;-78
2021/08/14 01:24:01;;;;;;;18.70;14.98;;;;;;;19.59;64.91;100811.83;1787040;80;21926;-77
2021/08/14 01:26:29;;;;;;;27.50;17.05;;;;;;;19.57;64.97;100813.91;1787178;80;21015;-77
2021/08/14 01:28:55;;;;;;;18.35;13.98;;;;;;;19.60;65.09;100813.50;1756382;80;21060;-77
2021/08/14 01:31:21;;;;;;;22.00;15.32;;;;;;;19.61;65.16;100816.48;1786925;80;21101;-77
2021/08/14 01:33:47;;;;;;;20.52;15.35;;;;;;;19.60;65.27;100813.50;1787015;80;21020;-77
2021/08/14 01:36:16;;;;;;;17.75;13.93;;;;;;;19.60;65.41;100810.80;1787446;80;21000;-77
2021/08/14 01:38:54;;;;;;;17.82;14.68;;;;;;;19.61;65.50;100811.91;1787062;80;20989;-77
2021/08/14 01:41:21;;;;;;;18.65;14.55;;;;;;;19.63;65.61;100811.70;1787158;80;21564;-78
2021/08/14 01:44:02;;;;;;;18.40;13.65;;;;;;;19.67;65.66;100821.02;1787349;80;21006;-78
2021/08/14 01:46:32;;;;;;;15.98;13.08;;;;;;;19.72;65.69;100818.50;1787152;80;21032;-77
2021/08/14 01:48:58;;;;;;;18.57;13.83;;;;;;;19.77;65.64;100815.42;1787372;80;21138;-77
2021/08/14 01:51:25;;;;;;;15.60;12.65;;;;;;;19.86;65.54;100816.83;1787069;80;21079;-77
2021/08/14 01:53:53;;;;;;;17.50;12.43;;;;;;;19.96;65.49;100819.03;1787594;80;21895;-77
2021/08/14 01:56:20;;;;;;;15.75;12.23;;;;;;;20.09;65.35;100821.62;1787321;80;21001;-78
2021/08/14 01:58:46;;;;;;;20.02;13.80;;;;;;;20.25;65.14;100823.78;1787502;80;21521;-77
2021/08/14 02:01:12;;;;;;;16.20;13.25;;;;;;;20.51;64.87;100821.91;1787290;80;21798;-77
2021/08/14 02:03:38;;;;;;;17.10;12.28;;;;;;;20.74;64.55;100823.41;1766869;80;21094;-77
2021/08/14 02:06:06;;;;;;;17.75;12.65;;;;;;;20.92;64.28;100822.05;1755241;81;21083;-78
2021/08/14 02:08:34;;;;;;;17.12;12.28;;;;;;;21.07;63.91;100815.72;1754952;81;20986;-78
2021/08/14 02:11:01;;;;;;;16.67;12.03;;;;;;;21.17;63.60;100825.52;1726009;81;20987;-78
2021/08/14 02:13:29;;;;;;;17.10;13.65;;;;;;;21.23;63.31;100821.89;1755127;81;21559;-78
2021/08/14 02:15:56;;;;;;;15.93;12.73;;;;;;;21.27;63.08;100819.02;1754817;81;21053;-77
2021/08/14 02:18:22;;;;;;;19.30;12.90;;;;;;;21.29;62.82;100821.48;1755179;81;21482;-78
2021/08/14 02:20:48;;;;;;;17.80;12.00;;;;;;;21.31;62.58;100824.29;1755174;81;21058;-78
2021/08/14 02:23:14;;;;;;;17.82;12.82;;;;;;;21.33;62.35;100826.23;1754752;81;20987;-77
2021/08/14 02:25:40;;;;;;;18.40;12.55;;;;;;;21.31;62.16;100824.29;1755028;81;21152;-78
2021/08/14 02:28:06;;;;;;;14.87;12.28;;;;;;;21.29;62.02;100822.84;1755190;81;21013;-78
2021/08/14 02:30:32;;;;;;;15.88;12.85;;;;;;;21.24;61.87;100830.86;1755166;81;21014;-78
2021/08/14 02:32:58;;;;;;;19.20;12.25;;;;;;;21.17;61.79;100833.66;1726817;79;21384;-75
2021/08/14 02:35:24;;;;;;;15.93;13.38;;;;;;;21.13;61.70;100831.62;1723810;80;21448;-77
2021/08/14 02:37:50;;;;;;;18.00;13.75;;;;;;;21.07;61.63;100833.87;1720993;83;21825;-77
2021/08/14 02:40:17;;;;;;;18.62;14.13;;;;;;;21.00;61.60;100832.60;1721234;83;21027;-77
2021/08/14 02:42:43;;;;;;;17.62;13.88;;;;;;;20.92;61.60;100842.39;1708687;84;20906;-77
2021/08/14 02:45:10;;;;;;;21.30;14.15;;;;;;;20.84;61.63;100836.73;1708733;84;21006;-78
2021/08/14 02:47:37;;;;;;;18.52;13.88;;;;;;;20.75;61.67;100840.81;1708899;84;21513;-77
2021/08/14 02:50:04;;;;;;;16.05;13.40;;;;;;;20.68;61.72;100839.23;1709019;84;21956;-77
2021/08/14 02:52:30;;;;;;;18.62;13.25;;;;;;;20.60;61.83;100834.92;1708502;84;21018;-77
2021/08/14 02:54:56;;;;;;;21.45;14.85;;;;;;;20.53;61.94;100833.34;1708884;84;21074;-77
2021/08/14 02:57:22;;;;;;;17.65;14.68;;;;;;;20.49;62.02;100830.77;1708731;84;21002;-77
2021/08/14 02:59:48;;;;;;;19.07;14.68;;;;;;;20.42;62.12;100831.67;1708793;84;21053;-77
2021/08/14 03:02:14;;;;;;;18.10;14.75;;;;;;;20.38;62.23;100839.11;1708815;84;21069;-77
2021/08/14 03:04:40;;;;;;;17.02;14.38;;;;;;;20.33;62.36;100841.15;1708628;84;21493;-78
2021/08/14 03:07:06;;;;;;;22.55;15.05;;;;;;;20.27;62.48;100851.50;1708855;84;21065;-77
2021/08/14 03:09:32;;;;;;;21.40;14.95;;;;;;;20.21;62.62;100860.48;1708485;84;21057;-77
2021/08/14 03:11:59;;;;;;;21.35;14.80;;;;;;;20.14;62.79;100865.13;1708747;84;21094;-77
2021/08/14 03:14:25;;;;;;;19.27;15.38;;;;;;;20.09;62.93;100862.24;1709036;84;21185;-78
2021/08/14 03:16:51;;;;;;;20.88;15.25;;;;;;;20.07;63.02;100864.35;1708770;84;21545;-78
2021/08/14 03:19:17;;;;;;;23.15;16.55;;;;;;;20.05;63.13;100869.70;1708821;84;21093;-77
2021/08/14 03:21:43;;;;;;;25.82;15.98;;;;;;;20.04;63.21;100870.73;1708580;84;20998;-78
2021/08/14 03:24:09;;;;;;;19.90;15.50;;;;;;;20.01;63.29;100863.89;1708882;84;21073;-78
2021/08/14 03:26:35;;;;;;;21.60;15.48;;;;;;;20.02;63.37;100868.78;1708514;84;21090;-77
2021/08/14 03:29:01;;;;;;;21.30;15.43;;;;;;;20.00;63.42;100887.95;1708661;84;21014;-78
2021/08/14 03:31:27;;;;;;;19.37;15.00;;;;;;;19.99;63.47;100886.28;1708940;84;21073;-77
2021/08/14 03:33:53;;;;;;;16.42;13.95;;;;;;;19.96;63.55;100890.78;1695948;84;21914;-77
2021/08/14 03:36:19;;;;;;;18.70;14.28;;;;;;;19.97;63.63;100887.55;1704755;84;21514;-78
2021/08/14 03:38:45;;;;;;;21.57;14.40;;;;;;;19.95;63.72;100898.59;1704813;84;21522;-77
2021/08/14 03:41:11;;;;;;;20.77;12.98;;;;;;;19.92;63.80;100897.16;1704692;84;21014;-77
2021/08/14 03:43:37;;;;;;;18.42;13.95;;;;;;;19.92;63.89;100907.98;1704542;84;21031;-77
2021/08/14 03:46:04;;;;;;;16.73;13.95;;;;;;;19.92;63.98;100910.70;1704804;84;21062;-78
2021/08/14 03:48:31;;;;;;;15.65;13.18;;;;;;;19.91;64.04;100913.64;1716903;83;21474;-78
2021/08/14 03:50:57;;;;;;;20.30;13.38;;;;;;;19.91;64.15;100918.50;1704771;84;21846;-78
2021/08/14 03:53:23;;;;;;;16.95;12.68;;;;;;;19.92;64.24;100924.23;1704678;84;20994;-77
2021/08/14 03:55:50;;;;;;;15.68;12.40;;;;;;;19.90;64.35;100926.34;1704574;84;21085;-77
2021/08/14 03:58:16;;;;;;;20.05;13.90;;;;;;;19.91;64.44;100924.47;1717260;83;21068;-78
2021/08/14 04:00:42;;;;;;;18.30;13.62;;;;;;;19.88;64.53;100924.87;1704677;84;20962;-77
2021/08/14 04:03:08;;;;;;;20.12;13.60;;;;;;;19.87;64.66;100924.07;1704686;84;21891;-77
2021/08/14 04:05:34;;;;;;;15.10;12.35;;;;;;;19.86;64.75;100926.98;1704597;84;21471;-78
2021/08/14 04:08:00;;;;;;;17.67;12.75;;;;;;;19.85;64.86;100922.61;1689247;85;21037;-77
2021/08/14 04:10:26;;;;;;;16.20;12.45;;;;;;;19.84;64.95;100927.19;1704393;83;21018;-77
2021/08/14 04:12:52;;;;;;;16.55;12.78;;;;;;;19.84;65.06;100930.45;1704554;84;21101;-78
2021/08/14 04:15:18;;;;;;;17.15;12.85;;;;;;;19.83;65.23;100930.97;1689057;85;21141;-77
2021/08/14 04:17:44;;;;;;;17.42;12.68;;;;;;;19.82;65.32;100939.29;1704713;84;21007;-77
2021/08/14 04:20:12;;;;;;;17.80;12.33;;;;;;;19.81;65.45;100945.74;1704585;84;21014;-77
2021/08/14 04:22:38;;;;;;;19.62;12.58;;;;;;;19.80;65.57;100948.16;1704230;83;21021;-77
2021/08/14 04:25:06;;;;;;;15.90;11.78;;;;;;;19.79;65.68;100947.84;1704851;84;20975;-77
2021/08/14 04:27:32;;;;;;;17.27;12.55;;;;;;;19.78;65.78;100947.02;1704384;84;21621;-77
2021/08/14 04:30:00;;;;;;;16.97;11.80;;;;;;;19.79;65.86;100950.55;1704678;84;21122;-77
2021/08/14 04:32:26;;;;;;;14.68;11.48;;;;;;;19.79;65.99;100961.38;1689020;82;21082;-77
2021/08/14 04:34:52;;;;;;;19.80;11.75;;;;;;;19.79;66.06;100960.03;1682552;84;21067;-77
2021/08/14 04:37:18;;;;;;;16.48;10.72;;;;;;;19.81;66.16;100967.39;1675275;85;21439;-77
2021/08/14 04:39:44;;;;;;;16.67;11.15;;;;;;;19.83;66.21;100981.56;1687001;85;21091;-77
2021/08/14 04:42:10;;;;;;;15.93;11.05;;;;;;;19.80;66.31;100980.13;1675173;85;21056;-77
2021/08/14 04:44:36;;;;;;;13.48;11.68;;;;;;;19.80;66.37;100983.35;1701955;84;21022;-77
2021/08/14 04:47:04;;;;;;;15.80;11.30;;;;;;;19.81;66.43;100984.99;1702677;84;21058;-77
2021/08/14 04:49:30;;;;;;;15.25;10.82;;;;;;;19.85;66.51;100982.16;1698092;84;21018;-77
2021/08/14 04:51:56;;;;;;;14.85;10.45;;;;;;;19.87;66.57;100986.86;1672791;85;21089;-77
2021/08/14 04:54:22;;;;;;;16.93;8.75;;;;;;;19.92;66.61;100989.73;1676007;85;21059;-74
2021/08/14 04:56:48;;;;;;;10.90;8.08;;;;;;;19.95;66.61;100993.36;1680074;83;21082;-73
2021/08/14 04:59:14;;;;;;;13.18;8.48;;;;;;;19.96;66.61;100986.90;1675770;84;21043;-74
2021/08/14 05:01:40;;;;;;;13.60;8.00;;;;;;;19.99;66.63;100995.10;1674666;85;21483;-74
2021/08/14 05:04:06;;;;;;;10.53;7.28;;;;;;;20.04;66.60;101003.42;1672369;85;21086;-74
2021/08/14 05:06:32;;;;;;;11.83;5.95;;;;;;;20.06;66.51;100995.38;1644597;87;21559;-74
2021/08/14 05:08:58;;;;;;;9.95;6.28;;;;;;;20.06;66.44;100988.61;1673851;85;21097;-73
2021/08/14 05:11:24;;;;;;;7.28;5.60;;;;;;;20.06;66.32;100987.25;1645014;87;21038;-73
2021/08/14 05:13:50;;;;;;;10.30;5.53;;;;;;;20.05;66.24;100980.20;1675037;85;21026;-74
2021/08/14 05:16:16;;;;;;;8.20;5.85;;;;;;;20.04;66.13;100985.82;1693357;84;21161;-74
2021/08/14 05:18:42;;;;;;;11.12;5.75;;;;;;;20.01;66.03;100989.80;1675275;85;21491;-74
2021/08/14 05:21:09;;;;;;;10.70;5.20;;;;;;;20.00;65.95;100996.25;1670796;85;21007;-74
2021/08/14 05:23:35;;;;;;;9.55;5.85;;;;;;;20.00;65.86;100997.61;1692217;84;21572;-74
2021/08/14 05:26:01;;;;;;;11.55;5.42;;;;;;;19.99;65.74;101002.70;1688676;85;21012;-74
2021/08/14 05:28:27;;;;;;;14.30;6.22;;;;;;;19.99;65.66;101005.42;1671343;85;21162;-74
2021/08/14 05:30:53;;;;;;;13.03;4.50;;;;;;;20.03;65.55;101005.30;1671263;85;20976;-74
2021/08/14 05:33:19;;;;;;;8.58;4.42;;;;;;;20.04;65.42;101008.32;1671639;85;21090;-74
2021/08/14 05:35:45;;;;;;;7.10;4.30;;;;;;;20.03;65.28;101012.06;1675005;85;20972;-74
2021/08/14 05:38:11;;;;;;;8.85;4.10;;;;;;;20.01;65.05;101013.34;1675257;85;21787;-74
2021/08/14 05:40:37;;;;;;;5.97;3.80;;;;;;;20.01;64.90;101014.69;1674947;85;21750;-74
2021/08/14 05:43:04;;;;;;;10.75;4.58;;;;;;;20.04;64.71;101018.31;1675143;85;20933;-74
2021/08/14 05:45:30;;;;;;;5.62;4.08;;;;;;;20.03;64.51;101021.55;1674784;85;21051;-74
2021/08/14 05:47:56;;;;;;;7.90;3.72;;;;;;;20.06;64.34;101027.88;1672318;85;21098;-74
2021/08/14 05:50:22;;;;;;;7.20;4.37;;;;;;;20.05;64.22;101030.81;1690106;84;21054;-74
2021/08/14 05:52:48;;;;;;;8.98;4.53;;;;;;;19.98;64.09;101029.50;1698669;84;21247;-74
2021/08/14 05:55:15;;;;;;;11.38;4.72;;;;;;;19.95;63.99;101039.38;1694245;84;21054;-74
2021/08/14 05:57:41;;;;;;;7.55;4.25;;;;;;;19.99;63.93;101036.55;1697619;83;21061;-74
2021/08/14 06:00:08;;;;;;;7.30;3.67;;;;;;;20.14;63.77;101040.34;1698706;83;21593;-74
2021/08/14 06:02:34;;;;;;;10.00;3.87;;;;;;;20.52;63.65;101038.98;1684524;83;21537;-74
2021/08/14 06:05:00;;;;;;;9.15;4.28;;;;;;;20.96;63.36;101037.50;1689171;84;21778;-74
2021/08/14 06:07:27;;;;;;;11.22;3.70;;;;;;;21.37;63.14;101035.03;1697556;84;21368;-74
2021/08/14 06:09:53;;;;;;;6.65;3.55;;;;;;;21.60;62.69;101030.30;1695446;83;21585;-74
2021/08/14 06:12:19;;;;;;;9.00;5.70;;;;;;;21.69;62.14;101037.07;1686611;83;21451;-74
2021/08/14 06:14:45;;;;;;;9.40;3.90;;;;;;;21.80;61.80;101032.23;1696179;83;21026;-73
2021/08/14 06:17:11;;;;;;;6.58;3.45;;;;;;;21.98;61.50;101040.92;1695367;84;21360;-74
2021/08/14 06:19:37;;;;;;;5.60;3.17;;;;;;;21.99;61.12;101047.99;1694770;84;21011;-74
2021/08/14 06:22:03;;;;;;;11.08;3.60;;;;;;;21.89;60.74;101051.23;1697000;84;21022;-74
2021/08/14 06:24:30;;;;;;;13.93;3.80;;;;;;;21.97;60.41;101045.22;1683158;85;20947;-74
2021/08/14 06:26:56;;;;;;;9.98;3.65;;;;;;;22.09;60.12;101055.09;1683051;84;21102;-74
2021/08/14 06:29:22;;;;;;;6.62;3.22;;;;;;;22.23;59.78;101051.14;1656303;85;21448;-74
2021/08/14 06:31:48;;;;;;;13.00;5.25;;;;;;;22.25;59.41;101051.73;1704953;84;21013;-74
2021/08/14 06:34:14;;;;;;;6.80;2.90;;;;;;;22.23;58.95;101042.98;1692709;82;21018;-74
2021/08/14 06:36:40;;;;;;;7.67;3.70;;;;;;;22.30;58.72;101043.72;1686937;85;21019;-74
2021/08/14 06:39:06;;;;;;;8.05;3.70;;;;;;;22.50;58.50;101049.38;1687563;85;21126;-74
2021/08/14 06:41:32;;;;;;;7.55;3.67;;;;;;;22.61;58.23;101046.70;1687478;85;21463;-74
2021/08/14 06:43:58;;;;;;;7.50;3.67;;;;;;;22.60;57.92;101045.03;1687233;85;21058;-74
2021/08/14 06:46:25;;;;;;;8.38;3.85;;;;;;;22.51;57.77;101057.84;1687329;85;21566;-74
2021/08/14 06:48:51;;;;;;;6.45;3.92;;;;;;;22.64;57.68;101055.75;1687338;85;21055;-73
2021/08/14 06:51:17;;;;;;;9.10;3.77;;;;;;;22.78;57.47;101050.95;1687302;84;21047;-74
2021/08/14 06:53:43;;;;;;;8.30;4.22;;;;;;;22.88;57.34;101053.92;1687495;85;21548;-74
2021/08/14 06:56:09;;;;;;;11.28;3.85;;;;;;;23.02;57.20;101058.08;1687252;85;21066;-74
2021/08/14 06:58:35;;;;;;;11.30;3.65;;;;;;;23.14;57.06;101057.56;1687381;85;21014;-74
2021/08/14 07:01:01;;;;;;;8.15;4.53;;;;;;;23.39;56.96;101054.08;1687347;85;21042;-74
2021/08/14 07:03:27;;;;;;;12.05;5.58;;;;;;;23.58;56.73;101059.39;1666290;85;21042;-74
2021/08/14 07:05:53;;;;;;;18.17;5.53;;;;;;;23.74;56.53;101058.67;1677140;84;21890;-75
2021/08/14 07:08:19;;;;;;;12.10;6.08;;;;;;;23.73;56.22;101062.45;1698178;84;21468;-74
2021/08/14 07:10:45;;;;;;;10.23;4.37;;;;;;;23.67;56.05;101071.59;1678045;84;21450;-75
2021/08/14 07:13:11;;;;;;;7.35;3.72;;;;;;;23.56;55.98;101078.71;1686399;85;21599;-75
2021/08/14 07:15:37;;;;;;;9.83;3.55;;;;;;;23.51;55.78;101076.39;1686160;85;21462;-74
2021/08/14 07:18:03;;;;;;;10.82;4.30;;;;;;;23.46;55.59;101069.48;1686375;84;22399;-74
2021/08/14 07:20:29;;;;;;;8.98;3.85;;;;;;;23.46;55.38;101074.92;1686842;85;20939;-75
2021/08/14 07:22:55;;;;;;;9.63;4.20;;;;;;;23.43;55.22;101074.05;1686618;85;21061;-75
2021/08/14 07:25:22;;;;;;;5.92;3.67;;;;;;;23.40;55.05;101072.05;1687288;85;21007;-74
2021/08/14 07:27:48;;;;;;;7.78;3.77;;;;;;;23.39;54.97;101066.33;1683504;85;21378;-74
2021/08/14 07:30:14;;;;;;;7.78;4.25;;;;;;;23.44;54.88;101057.98;1687570;84;21797;-74
2021/08/14 07:32:40;;;;;;;11.33;5.00;;;;;;;23.49;54.81;101063.56;1687007;85;21002;-74
2021/08/14 07:35:09;;;;;;;9.35;4.58;;;;;;;23.53;54.84;101063.38;1707375;83;21042;-74
2021/08/14 07:37:35;;;;;;;7.05;4.50;;;;;;;23.72;54.83;101058.06;1718075;83;21015;-74
2021/08/14 07:40:01;;;;;;;11.63;6.10;;;;;;;23.93;54.75;101062.86;1718132;83;21042;-74
2021/08/14 07:42:27;;;;;;;7.60;5.10;;;;;;;24.01;54.68;101057.05;1718300;83;21881;-74
2021/08/14 07:44:55;;;;;;;13.05;5.85;;;;;;;24.07;54.64;101060.69;1699818;84;21013;-74
2021/08/14 07:47:21;;;;;;;10.55;5.50;;;;;;;24.20;54.70;101050.37;1670823;85;21018;-75
2021/08/14 07:49:47;;;;;;;16.37;5.72;;;;;;;24.29;54.57;101051.63;1697118;84;21021;-74
2021/08/14 07:52:13;;;;;;;9.68;5.40;;;;;;;24.40;54.54;101054.54;1682794;85;21018;-74
2021/08/14 07:54:39;;;;;;;14.23;5.55;;;;;;;24.56;54.40;101060.58;1663211;85;21941;-74
2021/08/14 07:57:05;;;;;;;12.03;5.08;;;;;;;24.58;54.18;101055.16;1683313;84;21645;-74
2021/08/14 07:59:32;;;;;;;8.20;5.55;;;;;;;24.56;54.03;101057.29;1682031;84;21057;-75
2021/08/14 08:01:58;;;;;;;11.53;5.78;;;;;;;24.73;53.97;101055.97;1682513;85;21537;-75
2021/08/14 08:04:24;;;;;;;8.38;5.75;;;;;;;25.01;53.96;101060.55;1682755;84;21030;-75
2021/08/14 08:06:50;;;;;;;6.33;5.20;;;;;;;25.10;53.79;101061.23;1682663;85;22410;-75
2021/08/14 08:09:16;;;;;;;11.38;6.72;;;;;;;25.04;53.65;101067.70;1682625;84;21078;-74
2021/08/14 08:11:42;;;;;;;11.53;6.00;;;;;;;24.91;53.59;101058.45;1695025;84;20995;-74
2021/08/14 08:14:08;;;;;;;12.37;5.83;;;;;;;25.02;53.75;101052.09;1694976;84;21674;-75
2021/08/14 08:16:34;;;;;;;9.60;6.08;;;;;;;24.96;53.57;101059.09;1697455;83;21454;-74
2021/08/14 08:19:01;;;;;;;8.58;5.75;;;;;;;24.68;53.57;101056.70;1697261;84;21853;-74
2021/08/14 08:21:27;;;;;;;15.78;5.58;;;;;;;24.87;53.86;101055.13;1697281;84;21399;-74
2021/08/14 08:23:53;;;;;;;9.63;6.22;;;;;;;25.09;53.73;101060.11;1668289;85;21021;-75
2021/08/14 08:26:19;;;;;;;10.58;5.75;;;;;;;25.17;53.62;101062.43;1696043;84;21014;-75
2021/08/14 08:28:45;;;;;;;8.53;6.12;;;;;;;25.39;53.52;101060.58;1696848;84;21069;-75
2021/08/14 08:31:11;;;;;;;78.45;9.38;;;;;;;25.58;53.33;101059.80;1697622;84;21843;-75
2021/08/14 08:33:37;;;;;;;14.47;5.70;;;;;;;25.67;53.02;101052.80;1695943;83;21565;-75
2021/08/14 08:36:03;;;;;;;15.05;6.05;;;;;;;25.68;52.81;101059.92;1677575;84;20947;-75
2021/08/14 08:38:29;;;;;;;10.45;5.70;;;;;;;25.87;52.70;101062.62;1689816;83;21055;-76
2021/08/14 08:40:56;;;;;;;10.30;5.62;;;;;;;25.86;52.29;101062.89;1693757;84;21531;-75
2021/08/14 08:43:22;;;;;;;10.40;6.03;;;;;;;25.80;52.12;101060.62;1694176;84;22610;-75
2021/08/14 08:45:48;;;;;;;35.43;7.87;;;;;;;25.81;52.03;101062.28;1693696;84;20905;-75
2021/08/14 08:48:18;;;;;;;10.78;5.95;;;;;;;25.81;51.93;101063.64;1691999;84;21065;-76
2021/08/14 08:50:46;;;;;;;10.48;5.60;;;;;;;25.82;51.75;101058.47;1701294;84;21057;-75
2021/08/14 08:53:12;;;;;;;12.10;5.72;;;;;;;25.86;51.51;101060.98;1667496;84;20996;-76
2021/08/14 08:55:38;;;;;;;16.82;6.05;;;;;;;25.89;51.20;101061.02;1694163;84;21939;-75
2021/08/14 08:58:04;;;;;;;9.93;5.50;;;;;;;25.94;51.11;101056.42;1679977;84;21090;-75
2021/08/14 09:00:30;;;;;;;9.38;5.45;;;;;;;26.02;51.05;101057.34;1674567;85;20998;-74
2021/08/14 09:03:08;;;;;;;14.15;6.12;;;;;;;26.13;50.89;101059.66;1681221;84;21035;-74
2021/08/14 09:05:36;;;;;;;8.20;5.45;;;;;;;25.79;50.60;101063.08;1694491;84;21020;-74
2021/08/14 09:08:10;;;;;;;9.33;4.55;;;;;;;25.30;50.54;101060.17;1666536;84;21924;-75
2021/08/14 09:10:37;;;;;;;11.45;4.58;;;;;;;25.41;50.72;101063.87;1679271;84;21078;-75
2021/08/14 09:13:17;;;;;;;10.35;4.55;;;;;;;25.33;50.28;101059.67;1688557;84;21017;-75
2021/08/14 09:15:43;;;;;;;16.95;5.20;;;;;;;25.26;50.19;101054.13;1686409;84;21129;-75
2021/08/14 09:18:12;;;;;;;7.15;4.47;;;;;;;25.34;50.08;101051.77;1686003;84;21031;-74
2021/08/14 09:20:53;;;;;;;11.03;4.50;;;;;;;25.37;49.87;101053.73;1686013;85;21984;-74
2021/08/14 09:23:23;;;;;;;15.05;4.65;;;;;;;25.41;49.90;101048.86;1682337;84;21094;-74
2021/08/14 09:25:55;;;;;;;9.88;4.00;;;;;;;25.38;49.70;101048.53;1685914;85;21050;-75
2021/08/14 09:28:37;;;;;;;25.60;4.83;;;;;;;25.43;49.64;101049.45;1685667;85;21075;-74
2021/08/14 09:31:04;;;;;;;8.85;4.37;;;;;;;25.63;49.62;101051.65;1687445;85;21008;-74
2021/08/14 09:33:34;;;;;;;5.90;4.08;;;;;;;25.78;49.40;101048.59;1686930;85;21607;-76
2021/08/14 09:36:06;;;;;;;6.50;3.60;;;;;;;25.73;48.93;101043.58;1686337;85;21007;-76
2021/08/14 09:38:51;;;;;;;7.37;4.00;;;;;;;25.68;48.73;101040.80;1686517;85;21569;-75
2021/08/14 09:41:22;;;;;;;9.35;4.08;;;;;;;25.72;48.49;101039.22;1687212;85;21106;-75
2021/08/14 09:43:50;;;;;;;11.25;4.28;;;;;;;25.75;48.28;101040.07;1687497;85;21034;-75
2021/08/14 09:46:16;;;;;;;11.08;3.95;;;;;;;25.91;48.07;101043.27;1661494;85;23110;-75
2021/08/14 09:48:42;;;;;;;12.68;5.15;;;;;;;25.99;47.70;101041.98;1679759;85;21018;-75
2021/08/14 09:51:31;;;;;;;6.65;3.83;;;;;;;25.96;47.46;101036.50;1661498;85;21042;-75
2021/08/14 09:53:59;;;;;;;8.30;4.08;;;;;;;25.99;47.30;101035.98;1674443;85;21533;-75
2021/08/14 09:56:32;;;;;;;11.88;3.92;;;;;;;26.00;47.20;101038.98;1701406;84;21034;-75
2021/08/14 09:58:56;;;;;;;7.50;3.40;;;;;;;25.81;46.97;101044.52;1679812;83;21846;-75
2021/08/14 10:01:22;;;;;;;11.65;3.65;;;;;;;25.68;46.67;101042.17;1681974;84;21464;-75
2021/08/14 10:03:48;;;;;;;5.35;2.98;;;;;;;25.58;46.48;101040.11;1693635;84;20979;-75
2021/08/14 10:06:14;;;;;;;9.10;3.42;;;;;;;25.77;46.46;101036.53;1694178;84;21047;-76
2021/08/14 10:08:40;;;;;;;7.55;3.05;;;;;;;25.80;46.00;101031.38;1683105;84;21526;-75
2021/08/14 10:11:11;;;;;;;10.53;2.98;;;;;;;25.77;45.90;101028.33;1701904;84;21768;-78
2021/08/14 10:13:41;;;;;;;7.15;3.98;;;;;;;25.90;45.60;101025.20;1681476;84;21038;-77
2021/08/14 10:16:10;;;;;;;12.35;4.08;;;;;;;25.87;45.21;101022.98;1695974;84;21036;-78
2021/08/14 10:18:38;;;;;;;7.50;3.60;;;;;;;25.82;44.91;101022.94;1691605;84;21019;-78
2021/08/14 10:21:04;;;;;;;7.90;3.77;;;;;;;25.75;44.75;101017.67;1677431;84;21712;-79
2021/08/14 10:23:30;;;;;;;6.47;3.50;;;;;;;25.92;44.79;101028.52;1680489;84;21868;-77
2021/08/14 10:26:02;;;;;;;6.72;3.50;;;;;;;26.06;44.61;101017.48;1690983;84;21526;-77
2021/08/14 10:28:48;;;;;;;6.12;4.08;;;;;;;26.22;44.54;101015.20;1674462;85;21048;-77
2021/08/14 10:31:35;;;;;;;8.58;4.05;;;;;;;26.24;44.21;101015.80;1675030;84;21001;-78
2021/08/14 10:34:19;;;;;;;11.93;3.92;;;;;;;26.07;44.01;101008.17;1685047;84;21011;-77
2021/08/14 10:36:46;;;;;;;8.98;3.70;;;;;;;26.01;43.78;101005.11;1684647;83;22607;-78
2021/08/14 10:39:19;;;;;;;11.12;4.35;;;;;;;25.86;43.75;101009.59;1675881;85;21058;-78
2021/08/14 10:41:48;;;;;;;7.92;3.90;;;;;;;25.75;43.69;101001.81;1672609;85;22518;-78
2021/08/14 10:44:14;;;;;;;6.55;4.00;;;;;;;25.76;43.95;101007.54;1672614;85;21404;-78
2021/08/14 10:46:49;;;;;;;8.20;4.05;;;;;;;25.89;44.09;100989.41;1672686;84;20956;-78
2021/08/14 10:49:35;;;;;;;8.78;4.20;;;;;;;25.98;44.20;100989.22;1663315;86;21824;-78
2021/08/14 10:52:07;;;;;;;6.33;4.22;;;;;;;25.98;44.24;100986.48;1692201;83;21160;-78
2021/08/14 10:54:41;;;;;;;6.95;4.30;;;;;;;26.03;44.28;100980.25;1662905;86;21067;-78
2021/08/14 10:57:13;;;;;;;8.13;4.65;;;;;;;26.07;44.27;100971.83;1692371;84;21037;-78
2021/08/14 10:59:42;;;;;;;8.90;5.33;;;;;;;26.19;44.26;100971.14;1671530;85;21054;-78
2021/08/14 11:02:17;;;;;;;7.22;4.33;;;;;;;26.07;44.07;100963.06;1663083;86;21842;-78
2021/08/14 11:04:46;;;;;;;10.38;4.53;;;;;;;25.96;44.03;100968.16;1692381;84;21023;-78
2021/08/14 11:07:23;;;;;;;16.15;5.58;;;;;;;25.97;44.16;100972.52;1661793;86;20992;-78
2021/08/14 11:09:58;;;;;;;6.72;4.50;;;;;;;26.02;44.21;100961.66;1692627;83;21015;-78
2021/08/14 11:12:35;;;;;;;8.68;4.62;;;;;;;26.16;44.35;100960.16;1672734;85;21042;-78
2021/08/14 11:15:29;;;;;;;7.55;4.17;;;;;;;26.29;44.30;100959.75;1672563;85;21891;-78
2021/08/14 11:18:01;;;;;;;5.05;4.05;;;;;;;26.22;44.13;100961.88;1691693;84;20971;-77